createdAt,value
2019-04-11T00:00:37.106Z,8.05
2019-04-11T00:01:48.221Z,11.12
2019-04-11T00:02:51.119Z,11.78
2019-04-11T00:03:54.683Z,9.78
2019-04-11T00:04:58.799Z,10.38
2019-04-11T00:06:03.301Z,8.05
2019-04-11T00:07:07.858Z,8.78
2019-04-11T00:08:12.148Z,13.05
2019-04-11T00:09:17.146Z,9.60
2019-04-11T00:10:20.985Z,9.35
2019-04-11T00:11:25.942Z,8.90
2019-04-11T00:12:30.508Z,8.85
2019-04-11T00:13:36.248Z,8.85
2019-04-11T00:14:40.116Z,14.93
2019-04-11T00:15:44.468Z,8.70
2019-04-11T00:16:48.118Z,8.73
2019-04-11T00:17:52.352Z,8.50
2019-04-11T00:18:56.924Z,16.82
2019-04-11T00:20:00.555Z,8.53
2019-04-11T00:21:06.747Z,8.78
2019-04-11T00:22:11.097Z,9.23
2019-04-11T00:23:14.694Z,10.35
2019-04-11T00:24:18.722Z,9.38
2019-04-11T00:25:23.181Z,12.85
2019-04-11T00:26:26.707Z,8.88
2019-04-11T00:27:30.267Z,11.68
2019-04-11T00:28:34.056Z,9.70
2019-04-11T00:29:38.570Z,16.90
2019-04-11T00:30:42.266Z,8.88
2019-04-11T00:31:46.958Z,11.03
2019-04-11T00:32:51.872Z,9.28
2019-04-11T00:33:56.262Z,8.83
2019-04-11T00:34:59.935Z,9.00
2019-04-11T00:36:04.223Z,13.85
2019-04-11T00:37:08.622Z,9.25
2019-04-11T00:38:12.270Z,8.65
2019-04-11T00:39:15.935Z,11.48
2019-04-11T00:40:19.961Z,9.23
2019-04-11T00:41:23.943Z,9.30
2019-04-11T00:42:28.336Z,7.70
2019-04-11T00:43:37.679Z,8.10
2019-04-11T00:44:37.134Z,10.65
2019-04-11T00:45:40.706Z,11.35
2019-04-11T00:46:44.601Z,9.90
2019-04-11T00:47:49.061Z,10.00
2019-04-11T00:48:52.896Z,10.10
2019-04-11T00:49:56.862Z,8.93
2019-04-11T00:51:01.412Z,11.03
2019-04-11T00:52:05.043Z,10.43
2019-04-11T00:53:09.702Z,11.08
2019-04-11T00:54:14.254Z,8.38
2019-04-11T00:55:17.783Z,11.50
2019-04-11T00:56:21.409Z,9.13
2019-04-11T00:57:25.175Z,10.48
2019-04-11T00:58:29.671Z,18.30
2019-04-11T00:59:34.160Z,10.05
2019-04-11T01:00:38.377Z,12.05
2019-04-11T01:01:43.125Z,11.60
2019-04-11T01:02:47.434Z,12.60
2019-04-11T01:03:51.554Z,12.33
2019-04-11T01:04:55.153Z,8.63
2019-04-11T01:05:58.719Z,13.18
2019-04-11T01:07:02.749Z,10.35
2019-04-11T01:08:07.260Z,12.37
2019-04-11T01:09:11.115Z,9.70
2019-04-11T01:10:16.124Z,11.50
2019-04-11T01:11:19.863Z,10.35
2019-04-11T01:12:23.435Z,9.35
2019-04-11T01:13:30.490Z,16.48
2019-04-11T01:14:32.246Z,8.93
2019-04-11T01:15:36.478Z,10.40
2019-04-11T01:16:45.065Z,9.20
2019-04-11T01:17:49.624Z,9.45
2019-04-11T01:18:54.080Z,12.05
2019-04-11T01:19:57.593Z,10.75
2019-04-11T01:21:02.072Z,12.25
2019-04-11T01:22:05.778Z,15.55
2019-04-11T01:23:09.360Z,11.93
2019-04-11T01:24:13.028Z,11.40
2019-04-11T01:25:16.747Z,13.88
2019-04-11T01:26:21.210Z,13.08
2019-04-11T01:27:25.707Z,12.93
2019-04-11T01:28:29.331Z,11.70
2019-04-11T01:29:33.558Z,14.18
2019-04-11T01:30:38.835Z,17.42
2019-04-11T01:31:44.343Z,13.78
2019-04-11T01:32:48.658Z,12.20
2019-04-11T01:33:52.180Z,13.10
2019-04-11T01:34:55.789Z,12.05
2019-04-11T01:35:59.542Z,13.68
2019-04-11T01:37:03.800Z,17.62
2019-04-11T01:38:08.272Z,12.33
2019-04-11T01:39:29.437Z,9.10
2019-04-11T01:40:34.024Z,10.13
2019-04-11T01:41:38.386Z,14.45
2019-04-11T01:42:42.082Z,14.55
2019-04-11T01:43:53.412Z,11.18
2019-04-11T01:44:50.923Z,14.15
2019-04-11T01:45:54.487Z,14.93
2019-04-11T01:46:58.301Z,15.68
2019-04-11T01:48:07.051Z,11.95
2019-04-11T01:49:12.325Z,12.30
2019-04-11T01:50:17.526Z,11.68
2019-04-11T01:51:21.245Z,13.28
2019-04-11T01:52:24.889Z,16.73
2019-04-11T01:53:28.451Z,12.90
2019-04-11T01:54:32.203Z,15.45
2019-04-11T01:55:36.755Z,11.65
2019-04-11T01:56:41.175Z,14.03
2019-04-11T01:57:44.776Z,13.70
2019-04-11T01:58:48.941Z,15.60
2019-04-11T01:59:53.384Z,14.20
2019-04-11T02:00:58.850Z,12.60
2019-04-11T02:02:04.043Z,13.45
2019-04-11T02:03:09.259Z,12.82
2019-04-11T02:04:23.745Z,15.35
2019-04-11T02:05:29.341Z,13.53
2019-04-11T02:06:34.023Z,11.80
2019-04-11T02:07:38.567Z,13.53
2019-04-11T02:08:43.773Z,18.05
2019-04-11T02:09:48.374Z,11.60
2019-04-11T02:10:52.894Z,12.47
2019-04-11T02:11:56.570Z,11.68
2019-04-11T02:13:00.143Z,13.18
2019-04-11T02:14:12.094Z,13.60
2019-04-11T02:15:10.291Z,12.43
2019-04-11T02:16:14.112Z,14.23
2019-04-11T02:17:18.798Z,17.55
2019-04-11T02:18:23.312Z,18.55
2019-04-11T02:19:28.072Z,15.78
2019-04-11T02:20:31.724Z,10.38
2019-04-11T02:21:35.881Z,12.90
2019-04-11T02:22:42.339Z,17.45
2019-04-11T02:23:53.662Z,12.25
2019-04-11T02:25:05.796Z,18.80
2019-04-11T02:26:11.488Z,14.98
2019-04-11T02:27:26.005Z,13.80
2019-04-11T02:28:30.907Z,12.37
2019-04-11T02:29:35.459Z,14.15
2019-04-11T02:30:41.717Z,13.62
2019-04-11T02:31:46.759Z,14.78
2019-04-11T02:32:51.890Z,13.48
2019-04-11T02:33:57.332Z,22.25
2019-04-11T02:35:02.434Z,12.90
2019-04-11T02:36:07.901Z,11.53
2019-04-11T02:37:13.350Z,15.83
2019-04-11T02:38:16.936Z,13.08
2019-04-11T02:39:22.383Z,15.00
2019-04-11T02:40:27.516Z,19.65
2019-04-11T02:41:32.011Z,14.05
2019-04-11T02:42:36.557Z,13.20
2019-04-11T02:43:44.181Z,13.05
2019-04-11T02:45:03.538Z,13.88
2019-04-11T02:46:06.717Z,15.13
2019-04-11T02:47:07.457Z,13.58
2019-04-11T02:48:04.353Z,11.50
2019-04-11T02:49:10.234Z,12.68
2019-04-11T02:50:18.617Z,17.95
2019-04-11T02:51:20.559Z,13.25
2019-04-11T02:52:25.456Z,12.98
2019-04-11T02:53:30.711Z,10.78
2019-04-11T02:54:36.510Z,17.67
2019-04-11T02:55:41.707Z,13.18
2019-04-11T02:56:48.820Z,14.60
2019-04-11T02:57:51.694Z,13.00
2019-04-11T02:58:56.505Z,14.83
2019-04-11T03:00:01.881Z,15.90
2019-04-11T03:01:07.405Z,11.90
2019-04-11T03:02:12.951Z,20.82
2019-04-11T03:03:17.486Z,12.43
2019-04-11T03:04:22.764Z,17.82
2019-04-11T03:05:28.749Z,13.60
2019-04-11T03:06:33.357Z,18.23
2019-04-11T03:07:38.091Z,16.90
2019-04-11T03:08:43.562Z,17.07
2019-04-11T03:09:48.837Z,14.30
2019-04-11T03:10:53.596Z,13.20
2019-04-11T03:11:59.086Z,16.50
2019-04-11T03:13:03.102Z,12.50
2019-04-11T03:14:07.739Z,14.10
2019-04-11T03:15:28.931Z,17.73
2019-04-11T03:16:33.199Z,14.98
2019-04-11T03:17:30.814Z,17.37
2019-04-11T03:18:45.934Z,16.95
2019-04-11T03:19:44.041Z,15.03
2019-04-11T03:20:47.328Z,17.20
2019-04-11T03:21:46.775Z,13.85
2019-04-11T03:22:57.022Z,16.57
2019-04-11T03:23:56.179Z,16.02
2019-04-11T03:25:00.508Z,16.70
2019-04-11T03:26:05.304Z,14.35
2019-04-11T03:27:11.358Z,15.50
2019-04-11T03:28:21.062Z,16.37
2019-04-11T03:29:20.384Z,14.35
2019-04-11T03:30:38.480Z,15.32
2019-04-11T03:33:37.974Z,13.25
2019-04-11T03:34:33.411Z,16.32
2019-04-11T03:36:38.003Z,14.45
2019-04-11T03:37:24.273Z,13.45
2019-04-11T03:38:23.159Z,13.62
2019-04-11T03:39:29.047Z,13.72
2019-04-11T03:40:30.470Z,13.90
2019-04-11T03:41:35.174Z,16.87
2019-04-11T03:42:41.712Z,13.78
2019-04-11T03:43:41.801Z,17.75
2019-04-11T03:44:40.177Z,15.65
2019-04-11T03:46:01.822Z,12.23
2019-04-11T03:47:01.834Z,11.73
2019-04-11T03:48:07.469Z,21.93
2019-04-11T03:49:06.332Z,15.20
2019-04-11T03:50:08.228Z,22.98
2019-04-11T03:51:08.841Z,13.55
2019-04-11T03:52:14.978Z,13.40
2019-04-11T03:53:19.429Z,15.85
2019-04-11T03:54:25.253Z,16.80
2019-04-11T03:55:30.747Z,15.13
2019-04-11T03:56:35.046Z,14.53
2019-04-11T03:57:39.463Z,16.27
2019-04-11T03:58:43.788Z,15.88
2019-04-11T03:59:47.849Z,11.85
2019-04-11T04:00:54.674Z,15.05
2019-04-11T04:01:59.251Z,15.43
2019-04-11T04:03:04.581Z,18.48
2019-04-11T04:04:09.119Z,15.15
2019-04-11T04:05:15.138Z,15.72
2019-04-11T04:06:19.194Z,15.72
2019-04-11T04:07:23.469Z,13.32
2019-04-11T04:08:29.166Z,13.38
2019-04-11T04:09:32.873Z,15.60
2019-04-11T04:10:39.509Z,14.10
2019-04-11T04:11:46.559Z,16.02
2019-04-11T04:12:51.623Z,16.48
2019-04-11T04:14:10.297Z,17.60
2019-04-11T04:15:50.854Z,24.32
2019-04-11T04:17:01.452Z,22.15
2019-04-11T04:18:08.071Z,18.45
2019-04-11T04:19:27.111Z,18.80
2019-04-11T04:20:35.137Z,21.70
2019-04-11T04:21:43.001Z,16.82
2019-04-11T04:22:54.688Z,19.42
2019-04-11T04:24:01.686Z,17.65
2019-04-11T04:25:04.917Z,14.45
2019-04-11T04:26:10.542Z,19.23
2019-04-11T04:27:15.294Z,15.63
2019-04-11T04:28:19.663Z,14.75
2019-04-11T04:29:25.682Z,26.25
2019-04-11T04:30:29.988Z,25.82
2019-04-11T04:31:34.881Z,19.02
2019-04-11T04:32:39.153Z,15.18
2019-04-11T04:33:45.580Z,14.60
2019-04-11T04:34:50.812Z,15.88
2019-04-11T04:35:56.012Z,17.32
2019-04-11T04:37:00.153Z,17.17
2019-04-11T04:38:05.205Z,22.30
2019-04-11T04:39:10.674Z,15.40
2019-04-11T04:40:34.113Z,15.98
2019-04-11T04:41:30.820Z,16.30
2019-04-11T04:42:32.330Z,17.82
2019-04-11T04:43:32.196Z,16.45
2019-04-11T04:44:37.966Z,17.92
2019-04-11T04:45:58.120Z,20.72
2019-04-11T04:46:58.220Z,22.32
2019-04-11T04:47:58.952Z,16.85
2019-04-11T04:48:58.486Z,21.48
2019-04-11T04:50:04.001Z,21.02
2019-04-11T04:51:09.078Z,14.78
2019-04-11T04:52:14.394Z,15.83
2019-04-11T04:53:18.137Z,15.88
2019-04-11T04:54:24.075Z,14.95
2019-04-11T04:55:28.560Z,15.48
2019-04-11T04:56:34.793Z,21.12
2019-04-11T04:57:40.512Z,16.93
2019-04-11T04:58:46.739Z,15.23
2019-04-11T04:59:53.217Z,19.52
2019-04-11T05:00:58.533Z,16.20
2019-04-11T05:02:06.597Z,16.60
2019-04-11T05:03:13.816Z,22.20
2019-04-11T05:04:21.032Z,17.73
2019-04-11T05:05:26.736Z,20.48
2019-04-11T05:06:32.196Z,23.18
2019-04-11T05:07:40.192Z,22.13
2019-04-11T05:08:41.215Z,18.67
2019-04-11T05:09:45.966Z,18.37
2019-04-11T05:10:51.147Z,15.72
2019-04-11T05:11:55.214Z,17.25
2019-04-11T05:12:59.249Z,20.40
2019-04-11T05:14:03.707Z,14.50
2019-04-11T05:15:10.062Z,17.48
2019-04-11T05:16:17.597Z,15.30
2019-04-11T05:17:19.300Z,15.23
2019-04-11T05:18:23.676Z,18.57
2019-04-11T05:19:28.537Z,16.40
2019-04-11T05:20:32.295Z,18.42
2019-04-11T05:21:37.116Z,17.67
2019-04-11T05:22:41.577Z,18.17
2019-04-11T05:23:45.968Z,15.25
2019-04-11T05:24:49.588Z,17.60
2019-04-11T05:25:53.463Z,18.37
2019-04-11T05:26:57.887Z,15.98
2019-04-11T05:28:02.263Z,23.02
2019-04-11T05:29:05.811Z,17.05
2019-04-11T05:30:09.722Z,19.10
2019-04-11T05:31:14.322Z,15.32
2019-04-11T05:32:17.994Z,18.57
2019-04-11T05:33:21.563Z,15.70
2019-04-11T05:34:25.859Z,16.85
2019-04-11T05:35:29.864Z,17.07
2019-04-11T05:36:33.506Z,15.70
2019-04-11T05:37:37.782Z,18.12
2019-04-11T05:38:42.178Z,24.70
2019-04-11T05:39:45.802Z,17.30
2019-04-11T05:40:50.306Z,15.38
2019-04-11T05:41:54.469Z,18.07
2019-04-11T05:42:58.143Z,19.70
2019-04-11T05:44:03.133Z,26.20
2019-04-11T05:45:15.205Z,18.92
2019-04-11T05:46:26.468Z,20.65
2019-04-11T05:47:19.720Z,13.93
2019-04-11T05:48:30.548Z,15.75
2019-04-11T05:49:42.451Z,17.92
2019-04-11T05:50:50.658Z,19.05
2019-04-11T05:51:58.705Z,18.75
2019-04-11T05:53:03.715Z,16.30
2019-04-11T05:54:09.166Z,24.67
2019-04-11T05:55:13.872Z,20.20
2019-04-11T05:56:20.277Z,19.32
2019-04-11T05:57:33.562Z,17.90
2019-04-11T05:58:32.255Z,15.15
2019-04-11T05:59:37.030Z,22.58
2019-04-11T06:00:48.913Z,17.60
2019-04-11T06:01:54.964Z,18.50
2019-04-11T06:03:03.839Z,19.07
2019-04-11T06:04:28.207Z,17.37
2019-04-11T06:05:33.834Z,18.42
2019-04-11T06:06:40.156Z,19.75
2019-04-11T06:08:00.524Z,16.52
2019-04-11T06:09:10.383Z,16.97
2019-04-11T06:10:33.793Z,18.20
2019-04-11T06:11:56.045Z,19.60
2019-04-11T06:13:10.087Z,23.50
2019-04-11T06:14:17.955Z,23.77
2019-04-11T06:15:33.215Z,20.72
2019-04-11T06:16:43.533Z,14.28
2019-04-11T06:17:46.091Z,19.62
2019-04-11T06:18:54.294Z,15.70
2019-04-11T06:20:16.103Z,20.97
2019-04-11T06:21:28.296Z,18.30
2019-04-11T06:22:32.075Z,18.77
2019-04-11T06:23:46.271Z,18.95
2019-04-11T06:24:52.281Z,21.30
2019-04-11T06:26:00.875Z,16.77
2019-04-11T06:27:13.798Z,18.37
2019-04-11T06:28:20.160Z,17.37
2019-04-11T06:29:29.365Z,17.70
2019-04-11T06:30:40.876Z,19.57
2019-04-11T06:32:03.504Z,20.92
2019-04-11T06:33:14.796Z,14.07
2019-04-11T06:34:18.412Z,20.20
2019-04-11T06:35:24.106Z,20.32
2019-04-11T06:36:30.128Z,18.40
2019-04-11T06:37:44.076Z,15.03
2019-04-11T06:38:55.240Z,17.23
2019-04-11T06:40:00.861Z,18.35
2019-04-11T06:41:16.689Z,16.02
2019-04-11T06:42:26.992Z,15.32
2019-04-11T06:43:38.326Z,15.50
2019-04-11T06:44:59.526Z,10.68
2019-04-11T06:46:04.980Z,13.72
2019-04-11T06:47:27.193Z,12.13
2019-04-11T06:48:35.864Z,12.40
2019-04-11T06:49:53.518Z,12.53
2019-04-11T06:51:01.886Z,13.93
2019-04-11T06:52:10.719Z,17.10
2019-04-11T06:53:16.725Z,13.85
2019-04-11T06:54:23.211Z,10.78
2019-04-11T06:55:28.982Z,20.95
2019-04-11T06:56:34.892Z,10.53
2019-04-11T06:57:40.417Z,9.53
2019-04-11T06:58:55.594Z,10.50
2019-04-11T07:00:01.240Z,13.58
2019-04-11T07:01:06.470Z,12.00
2019-04-11T07:02:18.045Z,12.45
2019-04-11T07:03:23.125Z,9.30
2019-04-11T07:04:31.507Z,9.45
2019-04-11T07:05:36.723Z,9.75
2019-04-11T07:06:41.953Z,16.48
2019-04-11T07:07:47.321Z,11.55
2019-04-11T07:09:09.487Z,9.60
2019-04-11T07:10:13.771Z,8.95
2019-04-11T07:11:31.959Z,11.15
2019-04-11T07:12:40.774Z,10.43
2019-04-11T07:13:57.962Z,8.98
2019-04-11T07:15:06.641Z,7.67
2019-04-11T07:16:11.290Z,8.15
2019-04-11T07:17:33.790Z,9.20
2019-04-11T07:18:50.755Z,16.02
2019-04-11T07:20:08.731Z,7.20
2019-04-11T07:21:12.376Z,7.78
2019-04-11T07:22:34.799Z,7.87
2019-04-11T07:23:57.607Z,9.65
2019-04-11T07:25:03.965Z,9.90
2019-04-11T07:26:15.054Z,8.63
2019-04-11T07:27:18.623Z,8.08
2019-04-11T07:28:27.364Z,10.95
2019-04-11T07:29:35.772Z,8.18
2019-04-11T07:30:58.060Z,9.75
2019-04-11T07:32:09.475Z,6.95
2019-04-11T07:33:26.895Z,8.08
2019-04-11T07:34:44.188Z,7.65
2019-04-11T07:36:06.033Z,7.65
2019-04-11T07:37:28.106Z,10.88
2019-04-11T07:38:36.515Z,5.85
2019-04-11T07:39:58.626Z,18.85
2019-04-11T07:41:04.169Z,9.28
2019-04-11T07:42:15.914Z,7.95
2019-04-11T07:43:19.625Z,8.38
2019-04-11T07:44:30.117Z,7.83
2019-04-11T07:45:51.293Z,8.03
2019-04-11T07:46:56.548Z,9.08
2019-04-11T07:48:17.304Z,8.90
2019-04-11T07:49:22.491Z,10.10
2019-04-11T07:50:26.270Z,7.92
2019-04-11T07:51:31.981Z,7.83
2019-04-11T07:52:38.003Z,10.40
2019-04-11T07:53:43.725Z,7.62
2019-04-11T07:54:47.831Z,11.35
2019-04-11T07:55:51.420Z,6.53
2019-04-11T07:56:56.658Z,8.53
2019-04-11T07:58:17.831Z,8.45
2019-04-11T07:59:23.035Z,9.55
2019-04-11T08:00:41.713Z,6.85
2019-04-11T08:01:44.549Z,9.63
2019-04-11T08:03:06.342Z,8.90
2019-04-11T08:04:28.428Z,7.22
2019-04-11T08:05:36.725Z,8.83
2019-04-11T08:06:48.010Z,13.95
2019-04-11T08:08:09.565Z,6.10
2019-04-11T08:09:24.475Z,12.00
2019-04-11T08:10:46.102Z,6.58
2019-04-11T08:11:58.363Z,7.67
2019-04-11T08:13:18.652Z,7.25
2019-04-11T08:14:24.487Z,6.42
2019-04-11T08:15:46.115Z,10.95
2019-04-11T08:16:51.338Z,9.88
2019-04-11T08:17:54.946Z,10.18
2019-04-11T08:19:01.310Z,9.45
2019-04-11T08:20:25.679Z,7.53
2019-04-11T08:21:47.248Z,7.83
2019-04-11T08:22:52.478Z,8.93
2019-04-11T08:23:58.195Z,7.78
2019-04-11T08:25:20.796Z,7.65
2019-04-11T08:26:26.282Z,6.90
2019-04-11T08:27:35.689Z,6.95
2019-04-11T08:28:40.674Z,9.23
2019-04-11T08:29:47.167Z,7.75
2019-04-11T08:30:51.377Z,6.30
2019-04-11T08:32:13.684Z,7.90
2019-04-11T08:33:18.851Z,6.10
2019-04-11T08:34:23.583Z,8.33
2019-04-11T08:35:37.760Z,10.80
2019-04-11T08:37:01.047Z,6.75
2019-04-11T08:38:10.126Z,6.50
2019-04-11T08:39:15.900Z,7.78
2019-04-11T08:40:21.834Z,5.47
2019-04-11T08:41:44.052Z,6.42
2019-04-11T08:43:06.620Z,7.03
2019-04-11T08:44:10.378Z,8.30
2019-04-11T08:45:15.647Z,7.97
2019-04-11T08:46:30.913Z,5.85
2019-04-11T08:47:43.925Z,6.40
2019-04-11T08:48:46.166Z,6.60
2019-04-11T08:49:50.198Z,7.28
2019-04-11T08:50:58.878Z,6.22
2019-04-11T08:52:04.101Z,15.68
2019-04-11T08:53:18.639Z,8.78
2019-04-11T08:54:23.850Z,9.15
2019-04-11T08:55:29.383Z,6.90
2019-04-11T08:56:35.104Z,13.18
2019-04-11T08:57:41.566Z,7.47
2019-04-11T08:59:09.869Z,8.80
2019-04-11T09:00:16.262Z,8.85
2019-04-11T09:01:22.232Z,7.90
2019-04-11T09:02:26.928Z,7.65
2019-04-11T09:03:34.656Z,8.58
2019-04-11T09:04:48.882Z,7.92
2019-04-11T09:06:12.540Z,7.05
2019-04-11T09:07:19.126Z,7.40
2019-04-11T09:08:27.150Z,9.10
2019-04-11T09:09:36.792Z,9.90
2019-04-11T09:10:46.271Z,6.75
2019-04-11T09:11:54.667Z,8.63
2019-04-11T09:13:15.295Z,10.30
2019-04-11T09:14:20.491Z,9.90
2019-04-11T09:15:41.867Z,7.12
2019-04-11T09:16:47.919Z,6.45
2019-04-11T09:17:58.977Z,12.65
2019-04-11T09:19:15.117Z,9.83
2019-04-11T09:20:36.242Z,7.70
2019-04-11T09:21:58.329Z,8.45
2019-04-11T09:23:01.983Z,8.25
2019-04-11T09:24:08.247Z,6.90
2019-04-11T09:25:14.795Z,8.08
2019-04-11T09:26:25.939Z,6.10
2019-04-11T09:27:47.015Z,8.10
2019-04-11T09:28:51.579Z,8.85
2019-04-11T09:30:02.794Z,11.25
2019-04-11T09:31:27.481Z,6.22
2019-04-11T09:32:50.648Z,6.55
2019-04-11T09:33:59.539Z,5.97
2019-04-11T09:35:12.299Z,7.10
2019-04-11T09:36:33.600Z,6.97
2019-04-11T09:37:37.898Z,8.18
2019-04-11T09:38:43.372Z,7.60
2019-04-11T09:39:51.529Z,7.65
2019-04-11T09:40:57.220Z,5.90
2019-04-11T09:42:13.422Z,6.22
2019-04-11T09:43:19.890Z,14.85
2019-04-11T09:44:25.219Z,8.30
2019-04-11T09:45:30.428Z,7.10
2019-04-11T09:46:51.046Z,5.03
2019-04-11T09:48:10.990Z,10.35
2019-04-11T09:49:08.725Z,5.20
2019-04-11T09:50:30.309Z,12.45
2019-04-11T09:51:36.001Z,6.53
2019-04-11T09:52:50.055Z,5.12
2019-04-11T09:54:10.257Z,6.17
2019-04-11T09:55:33.340Z,9.30
2019-04-11T09:56:45.109Z,6.87
2019-04-11T09:57:50.453Z,7.90
2019-04-11T09:58:56.097Z,5.95
2019-04-11T10:00:04.181Z,6.87
2019-04-11T10:01:12.489Z,5.78
2019-04-11T10:02:21.175Z,6.28
2019-04-11T10:03:27.733Z,7.28
2019-04-11T10:04:33.920Z,8.03
2019-04-11T10:05:42.688Z,6.20
2019-04-11T10:07:03.453Z,5.83
2019-04-11T10:08:16.899Z,7.00
2019-04-11T10:09:22.163Z,11.83
2019-04-11T10:10:33.243Z,6.60
2019-04-11T10:11:44.186Z,5.67
2019-04-11T10:13:06.795Z,6.53
2019-04-11T10:14:13.360Z,6.65
2019-04-11T10:15:19.024Z,5.92
2019-04-11T10:16:26.667Z,11.00
2019-04-11T10:17:35.935Z,5.62
2019-04-11T10:18:50.043Z,5.83
2019-04-11T10:19:54.124Z,8.48
2019-04-11T10:20:59.264Z,6.03
2019-04-11T10:22:05.026Z,6.15
2019-04-11T10:23:19.143Z,7.85
2019-04-11T10:24:27.348Z,5.42
2019-04-11T10:25:32.556Z,5.58
2019-04-11T10:26:44.478Z,6.90
2019-04-11T10:28:06.087Z,6.60
2019-04-11T10:29:11.446Z,5.92
2019-04-11T10:30:17.358Z,6.20
2019-04-11T10:31:22.214Z,6.60
2019-04-11T10:32:27.595Z,6.25
2019-04-11T10:33:45.118Z,5.65
2019-04-11T10:34:56.051Z,5.70
2019-04-11T10:36:18.870Z,5.67
2019-04-11T10:37:23.419Z,7.35
2019-04-11T10:38:27.035Z,6.28
2019-04-11T10:39:35.567Z,6.62
2019-04-11T10:40:59.180Z,5.85
2019-04-11T10:42:04.415Z,9.50
2019-04-11T10:43:07.967Z,6.47
2019-04-11T10:44:13.915Z,8.48
2019-04-11T10:45:31.419Z,5.72
2019-04-11T10:46:45.885Z,12.40
2019-04-11T10:47:49.457Z,6.35
2019-04-11T10:48:57.595Z,8.85
2019-04-11T10:50:03.110Z,5.40
2019-04-11T10:51:20.605Z,11.70
2019-04-11T10:52:28.948Z,8.20
2019-04-11T10:53:33.290Z,6.55
2019-04-11T10:54:36.919Z,5.67
2019-04-11T10:55:46.073Z,9.53
2019-04-11T10:57:09.903Z,6.90
2019-04-11T10:58:18.444Z,7.55
2019-04-11T10:59:26.763Z,8.18
2019-04-11T11:00:37.602Z,5.30
2019-04-11T11:01:52.686Z,9.88
2019-04-11T11:03:00.446Z,6.47
2019-04-11T11:04:11.843Z,7.50
2019-04-11T11:05:19.137Z,5.50
2019-04-11T11:06:24.035Z,5.78
2019-04-11T11:07:28.994Z,19.35
2019-04-11T11:08:40.104Z,6.20
2019-04-11T11:09:54.671Z,7.00
2019-04-11T11:10:59.900Z,7.12
2019-04-11T11:12:10.950Z,7.75
2019-04-11T11:13:16.186Z,7.47
2019-04-11T11:14:38.488Z,6.40
2019-04-11T11:15:44.020Z,8.00
2019-04-11T11:16:52.778Z,6.72
2019-04-11T11:18:39.798Z,9.35
2019-04-11T11:19:50.053Z,6.80
2019-04-11T11:20:49.838Z,7.78
2019-04-11T11:21:51.254Z,6.28
2019-04-11T11:22:56.560Z,6.50
2019-04-11T11:24:17.955Z,6.80
2019-04-11T11:25:23.201Z,8.33
2019-04-11T11:26:27.927Z,6.83
2019-04-11T11:27:34.570Z,11.15
2019-04-11T11:28:48.995Z,9.43
2019-04-11T11:29:54.207Z,6.90
2019-04-11T11:31:03.213Z,7.05
2019-04-11T11:32:09.245Z,5.65
2019-04-11T11:33:13.947Z,6.37
2019-04-11T11:34:23.672Z,13.28
2019-04-11T11:35:34.922Z,6.22
2019-04-11T11:36:45.741Z,7.12
2019-04-11T11:37:49.763Z,6.42
2019-04-11T11:38:58.331Z,9.68
2019-04-11T11:40:20.284Z,6.15
2019-04-11T11:41:32.220Z,5.20
2019-04-11T11:42:54.619Z,8.00
2019-04-11T11:43:59.267Z,6.97
2019-04-11T11:45:07.295Z,6.75
2019-04-11T11:46:16.067Z,7.28
2019-04-11T11:47:25.895Z,7.87
2019-04-11T11:48:39.803Z,6.42
2019-04-11T11:49:51.834Z,6.50
2019-04-11T11:50:51.339Z,6.97
2019-04-11T11:52:06.745Z,11.43
2019-04-11T11:53:14.950Z,6.83
2019-04-11T11:54:23.899Z,9.83
2019-04-11T11:55:29.453Z,17.07
2019-04-11T11:56:34.847Z,6.20
2019-04-11T11:57:40.077Z,6.15
2019-04-11T11:58:51.338Z,8.10
2019-04-11T11:59:52.446Z,7.08
2019-04-11T12:01:01.240Z,17.55
2019-04-11T12:02:04.613Z,5.92
2019-04-11T12:03:10.758Z,8.55
2019-04-11T12:04:35.460Z,7.80
2019-04-11T12:05:41.522Z,8.80
2019-04-11T12:06:45.124Z,10.65
2019-04-11T12:07:54.513Z,5.95
2019-04-11T12:09:18.386Z,6.95
2019-04-11T12:10:23.954Z,7.75
2019-04-11T12:11:28.324Z,8.25
2019-04-11T12:12:46.412Z,6.37
2019-04-11T12:14:07.625Z,21.68
2019-04-11T12:15:26.851Z,7.62
2019-04-11T12:16:51.834Z,10.03
2019-04-11T12:18:01.764Z,9.10
2019-04-11T12:19:22.666Z,11.05
2019-04-11T12:20:29.062Z,8.28
2019-04-11T12:21:34.694Z,11.50
2019-04-11T12:22:40.243Z,7.20
2019-04-11T12:23:55.500Z,8.10
2019-04-11T12:24:52.498Z,6.70
2019-04-11T12:25:56.067Z,10.43
2019-04-11T12:27:18.255Z,8.73
2019-04-11T12:28:27.596Z,10.53
2019-04-11T12:29:36.400Z,13.20
2019-04-11T12:30:44.951Z,5.83
2019-04-11T12:31:50.268Z,11.20
2019-04-11T12:33:01.719Z,8.40
2019-04-11T12:34:23.968Z,14.05
2019-04-11T12:35:41.339Z,7.10
2019-04-11T12:36:48.039Z,11.30
2019-04-11T12:38:08.359Z,8.95
2019-04-11T12:39:29.876Z,8.53
2019-04-11T12:40:51.519Z,11.18
2019-04-11T12:41:56.766Z,8.08
2019-04-11T12:43:01.981Z,8.10
2019-04-11T12:44:07.187Z,7.58
2019-04-11T12:45:12.535Z,6.95
2019-04-11T12:46:33.814Z,9.90
2019-04-11T12:47:39.138Z,7.28
2019-04-11T12:48:43.254Z,12.20
2019-04-11T12:49:53.087Z,7.92
2019-04-11T12:51:01.196Z,9.08
2019-04-11T12:52:22.940Z,9.28
2019-04-11T12:53:26.502Z,10.58
2019-04-11T12:54:31.948Z,7.83
2019-04-11T12:55:37.223Z,8.93
2019-04-11T12:56:48.015Z,7.72
2019-04-11T12:57:58.932Z,8.60
2019-04-11T12:59:02.491Z,8.80
2019-04-11T13:00:20.576Z,16.00
2019-04-11T13:01:25.783Z,8.23
2019-04-11T13:02:46.447Z,9.18
2019-04-11T13:04:08.091Z,10.35
2019-04-11T13:05:13.299Z,8.43
2019-04-11T13:06:35.165Z,9.63
2019-04-11T13:07:40.427Z,8.08
2019-04-11T13:09:02.152Z,11.83
2019-04-11T13:10:08.799Z,7.15
2019-04-11T13:11:14.075Z,11.60
2019-04-11T13:12:31.036Z,8.10
2019-04-11T13:13:39.244Z,17.98
2019-04-11T13:15:00.987Z,13.20
2019-04-11T13:16:12.036Z,12.07
2019-04-11T13:17:15.931Z,19.30
2019-04-11T13:18:29.883Z,9.65
2019-04-11T13:19:35.090Z,20.37
2019-04-11T13:20:49.563Z,14.93
2019-04-11T13:21:54.771Z,18.05
2019-04-11T13:23:16.042Z,9.65
2019-04-11T13:24:33.166Z,8.45
2019-04-11T13:25:54.589Z,15.15
2019-04-11T13:26:59.817Z,7.45
2019-04-11T13:28:03.494Z,10.35
2019-04-11T13:29:20.740Z,9.30
2019-04-11T13:30:42.188Z,7.87
2019-04-11T13:31:47.396Z,9.28
2019-04-11T13:32:52.839Z,8.10
2019-04-11T13:33:58.114Z,11.15
2019-04-11T13:35:19.588Z,8.98
2019-04-11T13:36:41.417Z,11.93
2019-04-11T13:38:04.801Z,9.28
2019-04-11T13:39:08.431Z,9.00
2019-04-11T13:40:13.839Z,10.68
2019-04-11T13:41:31.508Z,11.95
2019-04-11T13:42:52.616Z,14.80
2019-04-11T13:43:56.755Z,8.90
2019-04-11T13:45:00.735Z,10.32
2019-04-11T13:46:22.180Z,11.80
2019-04-11T13:47:45.746Z,8.53
2019-04-11T13:49:09.327Z,10.13
2019-04-11T13:50:16.884Z,7.65
2019-04-11T13:51:31.985Z,8.40
2019-04-11T13:52:37.185Z,9.78
2019-04-11T13:53:58.613Z,7.15
2019-04-11T13:55:10.283Z,10.43
2019-04-11T13:56:13.991Z,7.75
2019-04-11T13:57:28.301Z,8.20
2019-04-11T13:58:33.500Z,9.15
2019-04-11T13:59:55.107Z,7.10
2019-04-11T14:00:58.811Z,8.20
2019-04-11T14:02:16.082Z,13.78
2019-04-11T14:03:32.987Z,10.28
2019-04-11T14:04:41.007Z,8.00
2019-04-11T14:05:46.245Z,7.60
2019-04-11T14:06:50.679Z,8.48
2019-04-11T14:07:55.882Z,7.70
2019-04-11T14:09:16.294Z,15.58
2019-04-11T14:10:21.377Z,9.43
2019-04-11T14:11:29.370Z,10.65
2019-04-11T14:12:34.032Z,8.60
2019-04-11T14:13:39.239Z,10.82
2019-04-11T14:14:43.366Z,8.75
2019-04-11T14:15:48.660Z,8.98
2019-04-11T14:17:02.627Z,9.18
2019-04-11T14:18:24.297Z,14.93
2019-04-11T14:19:41.393Z,13.05
2019-04-11T14:20:45.267Z,9.25
2019-04-11T14:21:50.460Z,7.90
2019-04-11T14:22:58.709Z,9.63
2019-04-11T14:24:19.888Z,8.68
2019-04-11T14:25:41.868Z,9.00
2019-04-11T14:26:47.411Z,8.60
2019-04-11T14:27:52.682Z,7.78
2019-04-11T14:28:56.919Z,8.83
2019-04-11T14:30:07.922Z,6.87
2019-04-11T14:31:15.879Z,6.75
2019-04-11T14:32:26.958Z,7.17
2019-04-11T14:33:32.163Z,7.80
2019-04-11T14:34:53.852Z,7.37
2019-04-11T14:36:01.807Z,8.38
2019-04-11T14:37:25.722Z,7.62
2019-04-11T14:38:32.059Z,9.05
2019-04-11T14:39:38.994Z,8.93
2019-04-11T14:40:44.240Z,10.82
2019-04-11T14:41:49.443Z,8.73
2019-04-11T14:43:10.747Z,16.00
2019-04-11T14:44:16.019Z,13.75
2019-04-11T14:45:38.283Z,14.55
2019-04-11T14:46:59.950Z,12.68
2019-04-11T14:48:14.155Z,7.40
2019-04-11T14:49:17.723Z,8.60
2019-04-11T14:50:21.287Z,7.97
2019-04-11T14:51:43.985Z,8.43
2019-04-11T14:52:57.318Z,10.55
2019-04-11T14:54:08.465Z,8.10
2019-04-11T14:55:12.023Z,7.85
2019-04-11T14:56:17.231Z,11.55
2019-04-11T14:57:38.427Z,7.20
2019-04-11T14:58:59.930Z,7.17
2019-04-11T15:00:06.671Z,8.40